createdAt,value
2022-11-17T00:01:29.487Z,2.35
2022-11-17T00:04:00.917Z,1.92
2022-11-17T00:06:32.356Z,2.27
2022-11-17T00:09:03.572Z,1.67
2022-11-17T00:11:53.843Z,4.00
2022-11-17T00:14:34.111Z,1.93
2022-11-17T00:17:07.838Z,1.97
2022-11-17T00:19:57.206Z,1.75
2022-11-17T00:22:30.047Z,2.25
2022-11-17T00:25:01.428Z,2.12
2022-11-17T00:27:32.647Z,1.87
2022-11-17T00:30:03.948Z,1.85
2022-11-17T00:32:52.955Z,1.67
2022-11-17T00:35:24.141Z,2.50
2022-11-17T00:38:17.112Z,2.25
2022-11-17T00:40:48.467Z,2.20
2022-11-17T00:43:19.540Z,2.00
2022-11-17T00:48:20.551Z,2.50
2022-11-17T00:50:51.778Z,2.30
2022-11-17T00:53:22.959Z,1.92
2022-11-17T00:55:54.164Z,1.92
2022-11-17T00:58:25.444Z,2.37
2022-11-17T01:00:56.658Z,2.52
2022-11-17T01:03:27.767Z,3.10
2022-11-17T01:06:04.772Z,2.83
2022-11-17T01:08:36.583Z,2.87
2022-11-17T01:11:11.199Z,2.90
2022-11-17T01:13:43.790Z,2.40
2022-11-17T01:16:17.197Z,2.95
2022-11-17T01:18:50.273Z,2.80
2022-11-17T01:21:23.319Z,4.33
2022-11-17T01:23:57.377Z,3.15
2022-11-17T01:26:30.769Z,2.62
2022-11-17T01:29:03.185Z,2.90
2022-11-17T01:31:36.508Z,2.65
2022-11-17T01:34:08.777Z,3.00
2022-11-17T01:37:00.767Z,2.70
2022-11-17T01:39:32.854Z,2.90
2022-11-17T01:42:08.014Z,2.60
2022-11-17T01:45:03.258Z,2.62
2022-11-17T01:47:40.138Z,3.40
2022-11-17T01:50:17.490Z,3.98
2022-11-17T01:52:49.891Z,4.12
2022-11-17T01:55:24.261Z,3.02
2022-11-17T01:57:58.959Z,3.25
2022-11-17T02:00:31.706Z,2.90
2022-11-17T02:03:05.167Z,2.58
2022-11-17T02:05:45.469Z,3.40
2022-11-17T02:08:17.221Z,2.00
2022-11-17T02:10:51.798Z,2.65
2022-11-17T02:13:25.780Z,2.65
2022-11-17T02:15:56.959Z,1.90
2022-11-17T02:18:28.438Z,1.37
2022-11-17T02:21:09.879Z,1.57
2022-11-17T02:24:14.350Z,2.00
2022-11-17T02:27:06.223Z,2.10
2022-11-17T02:29:40.712Z,1.87
2022-11-17T02:32:15.223Z,1.22
2022-11-17T02:34:49.741Z,1.20
2022-11-17T02:37:24.500Z,1.22
2022-11-17T02:39:58.884Z,0.80
2022-11-17T02:42:52.291Z,0.98
2022-11-17T02:45:26.799Z,1.02
2022-11-17T02:48:01.280Z,0.90
2022-11-17T02:50:34.189Z,0.80
2022-11-17T02:53:06.218Z,1.12
2022-11-17T02:55:38.317Z,0.72
2022-11-17T02:58:12.955Z,0.75
2022-11-17T03:00:47.300Z,1.00
2022-11-17T03:03:26.461Z,0.55
2022-11-17T03:06:01.141Z,0.82
2022-11-17T03:08:36.106Z,1.05
2022-11-17T03:11:09.276Z,1.10
2022-11-17T03:13:46.537Z,1.00
2022-11-17T03:16:24.271Z,1.30
2022-11-17T03:19:03.493Z,1.52
2022-11-17T03:21:38.137Z,1.10
2022-11-17T03:24:14.395Z,0.80
2022-11-17T03:26:50.019Z,1.02
2022-11-17T03:29:24.541Z,1.00
2022-11-17T03:31:58.218Z,1.12
2022-11-17T03:34:32.842Z,1.00
2022-11-17T03:37:07.124Z,1.47
2022-11-17T03:39:41.197Z,1.22
2022-11-17T03:42:15.831Z,1.35
2022-11-17T03:44:50.725Z,1.12
2022-11-17T03:47:24.490Z,1.40
2022-11-17T03:49:58.910Z,1.30
2022-11-17T03:52:31.837Z,1.07
2022-11-17T03:55:03.990Z,1.65
2022-11-17T03:57:38.440Z,2.20
2022-11-17T04:00:14.244Z,1.82
2022-11-17T04:02:47.700Z,1.87
2022-11-17T04:05:20.129Z,1.42
2022-11-17T04:07:51.567Z,1.32
2022-11-17T04:10:26.349Z,1.50
2022-11-17T04:13:15.123Z,1.35
2022-11-17T04:15:59.403Z,1.25
2022-11-17T04:18:31.231Z,1.20
2022-11-17T04:21:03.041Z,1.10
2022-11-17T04:23:34.610Z,1.80
2022-11-17T04:26:24.065Z,1.67
2022-11-17T04:28:55.407Z,1.37
2022-11-17T04:31:28.806Z,1.52
2022-11-17T04:34:01.218Z,1.50
2022-11-17T04:36:35.134Z,1.70
2022-11-17T04:39:06.734Z,2.27
2022-11-17T04:41:59.351Z,1.90
2022-11-17T04:44:32.659Z,1.90
2022-11-17T04:47:04.136Z,1.50
2022-11-17T04:49:35.432Z,1.42
2022-11-17T04:52:07.036Z,1.35
2022-11-17T04:54:38.159Z,1.47
2022-11-17T04:59:39.092Z,1.80
2022-11-17T05:02:10.408Z,1.75
2022-11-17T05:04:56.771Z,1.60
2022-11-17T05:07:28.010Z,1.57
2022-11-17T05:09:59.367Z,1.80
2022-11-17T05:12:48.577Z,1.60
2022-11-17T05:15:21.464Z,2.08
2022-11-17T05:17:52.651Z,1.55
2022-11-17T05:20:23.872Z,2.45
2022-11-17T05:23:12.781Z,1.82
2022-11-17T05:25:44.087Z,1.87
2022-11-17T05:28:15.225Z,2.08
2022-11-17T05:30:46.590Z,1.87
2022-11-17T05:33:17.896Z,2.08
2022-11-17T05:35:49.082Z,3.15
2022-11-17T05:38:20.266Z,3.22
2022-11-17T05:40:51.496Z,2.45
2022-11-17T05:43:23.190Z,2.37
2022-11-17T05:45:54.512Z,2.25
2022-11-17T05:48:25.970Z,2.75
2022-11-17T05:50:58.288Z,2.45
2022-11-17T05:53:31.344Z,2.50
2022-11-17T05:56:17.177Z,2.10
2022-11-17T05:58:51.436Z,1.82
2022-11-17T06:01:23.736Z,2.58
2022-11-17T06:03:58.441Z,2.25
2022-11-17T06:06:31.274Z,3.05
2022-11-17T06:09:02.792Z,2.50
2022-11-17T06:11:33.882Z,3.47
2022-11-17T06:16:38.066Z,2.20
2022-11-17T06:19:12.528Z,2.20
2022-11-17T06:22:10.423Z,2.35
2022-11-17T06:24:17.415Z,2.00
2022-11-17T06:26:48.768Z,3.95
2022-11-17T06:29:21.140Z,2.62
2022-11-17T06:31:53.615Z,3.52
2022-11-17T06:34:27.571Z,4.30
2022-11-17T06:36:58.741Z,5.08
2022-11-17T06:39:29.839Z,2.65
2022-11-17T06:44:30.714Z,2.80
2022-11-17T06:49:32.070Z,5.65
2022-11-17T06:52:03.382Z,9.73
2022-11-17T06:54:34.603Z,7.70
2022-11-17T06:57:05.921Z,7.83
2022-11-17T06:59:37.321Z,6.12
2022-11-17T07:02:08.560Z,5.10
2022-11-17T07:04:41.176Z,5.58
2022-11-17T07:07:14.158Z,6.58
2022-11-17T07:09:45.399Z,7.58
2022-11-17T07:14:47.162Z,5.07
2022-11-17T07:17:18.522Z,6.00
2022-11-17T07:19:49.835Z,5.67
2022-11-17T07:22:20.974Z,4.72
2022-11-17T07:24:52.315Z,6.25
2022-11-17T07:27:23.519Z,5.33
2022-11-17T07:29:54.859Z,4.62
2022-11-17T07:32:26.828Z,3.77
2022-11-17T07:34:59.887Z,5.15
2022-11-17T07:37:33.451Z,3.75
2022-11-17T07:40:05.211Z,3.10
2022-11-17T07:42:36.619Z,4.70
2022-11-17T07:45:09.833Z,6.62
2022-11-17T07:47:41.014Z,5.97
2022-11-17T07:50:12.657Z,7.05
2022-11-17T07:52:43.938Z,5.65
2022-11-17T07:55:15.423Z,3.40
2022-11-17T07:57:47.702Z,3.72
2022-11-17T08:00:19.738Z,4.47
2022-11-17T08:02:50.984Z,3.85
2022-11-17T08:05:22.434Z,3.15
2022-11-17T08:07:57.820Z,3.27
2022-11-17T08:10:31.286Z,2.30
2022-11-17T08:13:02.646Z,3.27
2022-11-17T08:15:33.935Z,2.47
2022-11-17T08:18:06.228Z,1.65
2022-11-17T08:20:37.788Z,2.40
2022-11-17T08:23:09.065Z,2.15
2022-11-17T08:25:40.288Z,2.30
2022-11-17T08:28:11.629Z,2.67
2022-11-17T08:30:44.335Z,2.87
2022-11-17T08:33:15.808Z,4.08
2022-11-17T08:35:46.975Z,2.95
2022-11-17T08:38:18.756Z,2.72
2022-11-17T08:40:50.099Z,2.72
2022-11-17T08:43:21.293Z,3.10
2022-11-17T08:45:52.544Z,2.85
2022-11-17T08:48:24.014Z,2.95
2022-11-17T08:50:55.285Z,2.20
2022-11-17T08:53:27.130Z,4.40
2022-11-17T08:55:58.352Z,2.10
2022-11-17T08:58:29.621Z,3.65
2022-11-17T09:01:05.161Z,2.10
2022-11-17T09:03:33.655Z,2.27
2022-11-17T09:06:06.378Z,2.92
2022-11-17T09:08:45.489Z,2.05
2022-11-17T09:11:12.507Z,2.20
2022-11-17T09:13:45.575Z,2.98
2022-11-17T09:16:17.449Z,2.65
2022-11-17T09:18:48.583Z,1.90
2022-11-17T09:21:19.982Z,2.67
2022-11-17T09:23:51.301Z,2.80
2022-11-17T09:26:23.114Z,2.52
2022-11-17T09:28:54.688Z,2.40
2022-11-17T09:31:26.085Z,4.78
2022-11-17T09:34:00.851Z,2.00
2022-11-17T09:36:30.452Z,1.72
2022-11-17T09:39:01.999Z,2.85
2022-11-17T09:41:38.050Z,3.25
2022-11-17T09:44:18.760Z,3.08
2022-11-17T09:47:02.844Z,1.92
2022-11-17T09:49:40.500Z,2.10
2022-11-17T09:52:17.143Z,2.62
2022-11-17T09:54:53.215Z,2.35
2022-11-17T09:57:28.841Z,4.05
2022-11-17T10:00:07.185Z,2.20
2022-11-17T10:02:38.468Z,2.75
2022-11-17T10:05:16.809Z,2.22
2022-11-17T10:07:51.973Z,1.57
2022-11-17T10:10:27.016Z,1.40
2022-11-17T10:12:59.828Z,1.52
2022-11-17T10:15:33.407Z,3.47
2022-11-17T10:18:05.756Z,3.52
2022-11-17T10:20:36.924Z,2.80
2022-11-17T10:23:11.680Z,1.57
2022-11-17T10:25:44.556Z,2.60
2022-11-17T10:28:27.853Z,4.03
2022-11-17T10:31:01.068Z,2.47
2022-11-17T10:33:38.607Z,3.90
2022-11-17T10:36:16.731Z,2.30
2022-11-17T10:38:49.547Z,4.90
2022-11-17T10:41:23.898Z,2.52
2022-11-17T10:44:00.014Z,1.90
2022-11-17T10:46:43.159Z,1.67
2022-11-17T10:49:05.838Z,2.22
2022-11-17T10:51:37.280Z,2.45
2022-11-17T10:54:16.244Z,2.22
2022-11-17T10:56:50.488Z,1.80
2022-11-17T10:59:24.878Z,1.57
2022-11-17T11:01:56.171Z,1.70
2022-11-17T11:04:33.090Z,2.42
2022-11-17T11:07:13.147Z,2.37
2022-11-17T11:09:48.607Z,1.93
2022-11-17T11:12:23.320Z,2.10
2022-11-17T11:14:57.449Z,2.70
2022-11-17T11:17:30.546Z,2.22
2022-11-17T11:20:04.083Z,2.45
2022-11-17T11:22:40.562Z,2.95
2022-11-17T11:25:23.957Z,2.42
2022-11-17T11:28:03.761Z,2.92
2022-11-17T11:30:38.017Z,2.45
2022-11-17T11:33:18.195Z,1.60
2022-11-17T11:36:00.098Z,1.63
2022-11-17T11:38:39.961Z,2.30
2022-11-17T11:41:20.263Z,2.85
2022-11-17T11:43:59.080Z,1.98
2022-11-17T11:46:40.915Z,1.98
2022-11-17T11:49:19.661Z,1.72
2022-11-17T11:51:53.908Z,1.42
2022-11-17T11:54:30.476Z,2.05
2022-11-17T11:57:02.908Z,1.65
2022-11-17T11:59:40.922Z,2.52
2022-11-17T12:02:21.932Z,1.32
2022-11-17T12:04:57.325Z,3.83
2022-11-17T12:07:32.543Z,0.85
2022-11-17T12:10:07.123Z,1.07
2022-11-17T12:12:40.653Z,0.90
2022-11-17T12:15:15.925Z,1.17
2022-11-17T12:18:00.920Z,0.90
2022-11-17T12:20:57.554Z,1.00
2022-11-17T12:23:37.837Z,1.27
2022-11-17T12:28:41.124Z,1.72
2022-11-17T12:31:15.094Z,0.70
2022-11-17T12:34:12.510Z,0.70
2022-11-17T12:36:44.252Z,0.80
2022-11-17T12:39:57.067Z,1.17
2022-11-17T12:42:28.677Z,1.00
2022-11-17T12:45:18.346Z,1.42
2022-11-17T12:48:11.303Z,0.80
2022-11-17T12:50:39.181Z,0.90
2022-11-17T12:53:54.154Z,0.78
2022-11-17T12:56:46.975Z,1.47
2022-11-17T12:59:49.353Z,1.25
2022-11-17T13:02:36.314Z,0.82
2022-11-17T13:05:10.648Z,1.10
2022-11-17T13:07:42.093Z,0.68
2022-11-17T13:10:26.575Z,1.00
2022-11-17T13:13:14.523Z,2.42
2022-11-17T13:15:47.603Z,1.47
2022-11-17T13:18:27.852Z,0.65
2022-11-17T13:23:31.243Z,0.50
2022-11-17T13:26:12.523Z,0.50
2022-11-17T13:28:44.568Z,1.92
2022-11-17T13:31:19.398Z,0.70
2022-11-17T13:34:01.137Z,0.82
2022-11-17T13:36:32.594Z,1.12
2022-11-17T13:39:04.939Z,0.80
2022-11-17T13:41:39.668Z,0.72
2022-11-17T13:44:16.343Z,0.93
2022-11-17T13:46:47.862Z,0.85
2022-11-17T13:49:35.403Z,1.10
2022-11-17T13:52:08.652Z,1.40
2022-11-17T13:54:44.138Z,1.00
2022-11-17T13:57:20.359Z,0.82
2022-11-17T13:59:51.977Z,1.00
2022-11-17T14:02:29.880Z,0.75
2022-11-17T14:08:23.350Z,1.00
2022-11-17T14:11:05.825Z,0.70
2022-11-17T14:13:40.972Z,0.70
2022-11-17T14:16:24.840Z,0.95
2022-11-17T14:19:02.523Z,1.12
2022-11-17T14:21:34.192Z,1.25
2022-11-17T14:24:09.942Z,1.20
2022-11-17T14:26:45.437Z,2.37
2022-11-17T14:29:17.029Z,4.62
2022-11-17T14:31:48.186Z,2.67
2022-11-17T14:34:19.500Z,3.10
2022-11-17T14:36:53.390Z,2.42
2022-11-17T14:39:26.967Z,1.72
2022-11-17T14:41:58.330Z,1.62
2022-11-17T14:44:29.536Z,1.20
2022-11-17T14:47:00.716Z,1.72
2022-11-17T14:52:02.658Z,1.62
2022-11-17T14:54:33.838Z,1.07
2022-11-17T14:57:05.334Z,2.40
2022-11-17T14:59:39.813Z,1.50
2022-11-17T15:02:11.716Z,2.08
2022-11-17T15:04:50.364Z,1.10
2022-11-17T15:07:15.940Z,1.20
2022-11-17T15:09:47.127Z,0.57
2022-11-17T15:12:18.458Z,0.57
2022-11-17T15:14:49.930Z,0.80
2022-11-17T15:17:21.310Z,0.60
2022-11-17T15:19:53.116Z,2.15
2022-11-17T15:22:24.040Z,1.30
2022-11-17T15:24:55.249Z,1.00
2022-11-17T15:27:27.013Z,1.37
2022-11-17T15:29:58.208Z,1.22
2022-11-17T15:32:30.394Z,1.90
2022-11-17T15:35:01.626Z,1.20
2022-11-17T15:37:32.824Z,5.70
2022-11-17T15:40:05.980Z,1.67
2022-11-17T15:42:38.626Z,1.30
2022-11-17T15:45:11.984Z,1.15
2022-11-17T15:47:43.397Z,1.42
2022-11-17T15:50:14.677Z,0.72
2022-11-17T15:53:03.439Z,0.95
2022-11-17T15:55:18.815Z,1.00
2022-11-17T15:57:50.091Z,1.10
2022-11-17T16:00:21.889Z,1.55
2022-11-17T16:02:58.333Z,1.00
2022-11-17T16:05:25.958Z,1.52
2022-11-17T16:07:57.750Z,1.12
2022-11-17T16:10:28.868Z,1.10
2022-11-17T16:13:00.042Z,1.05
2022-11-17T16:15:31.214Z,1.15
2022-11-17T16:18:02.342Z,1.12
2022-11-17T16:20:33.756Z,1.15
2022-11-17T16:23:04.975Z,2.12
2022-11-17T16:25:41.607Z,2.52
2022-11-17T16:28:14.187Z,2.12
2022-11-17T16:30:45.749Z,1.82
2022-11-17T16:33:17.258Z,1.27
2022-11-17T16:35:48.516Z,1.37
2022-11-17T16:38:19.853Z,0.80
2022-11-17T16:40:51.201Z,2.30
2022-11-17T16:43:22.496Z,1.32
2022-11-17T16:45:54.826Z,3.70
2022-11-17T16:48:26.045Z,2.47
2022-11-17T16:50:57.873Z,1.42
2022-11-17T16:53:29.773Z,1.98
2022-11-17T16:56:05.600Z,0.90
2022-11-17T16:58:37.291Z,17.12
2022-11-17T17:01:13.205Z,4.05
2022-11-17T17:03:44.730Z,1.50
2022-11-17T17:06:18.369Z,1.62
2022-11-17T17:08:50.989Z,2.15
2022-11-17T17:11:22.567Z,2.50
2022-11-17T17:13:53.834Z,3.10
2022-11-17T17:16:26.083Z,1.77
2022-11-17T17:18:59.382Z,1.50
2022-11-17T17:21:32.440Z,1.67
2022-11-17T17:24:04.701Z,1.47
2022-11-17T17:26:37.214Z,2.10
2022-11-17T17:29:09.005Z,1.85
2022-11-17T17:31:42.330Z,2.58
2022-11-17T17:34:14.658Z,1.90
2022-11-17T17:36:45.990Z,2.72
2022-11-17T17:39:18.396Z,6.55
2022-11-17T17:41:49.782Z,2.37
2022-11-17T17:44:21.555Z,3.42
2022-11-17T17:46:52.911Z,3.67
2022-11-17T17:49:27.437Z,2.92
2022-11-17T17:51:58.834Z,3.22
2022-11-17T17:54:30.023Z,3.90
2022-11-17T17:57:02.295Z,2.60
2022-11-17T17:59:33.458Z,2.67
2022-11-17T18:02:04.758Z,2.20
2022-11-17T18:04:35.991Z,2.20
2022-11-17T18:07:09.250Z,2.00
2022-11-17T18:09:40.079Z,2.98
2022-11-17T18:12:11.362Z,4.33
2022-11-17T18:14:43.839Z,4.55
2022-11-17T18:17:15.202Z,4.00
2022-11-17T18:19:46.360Z,2.00
2022-11-17T18:22:17.613Z,3.72
2022-11-17T18:24:49.537Z,2.02
2022-11-17T18:27:20.534Z,2.22
2022-11-17T18:29:52.162Z,2.52
2022-11-17T18:32:23.915Z,2.17
2022-11-17T18:34:55.216Z,1.82
2022-11-17T18:37:26.664Z,2.70
2022-11-17T18:39:58.124Z,2.22
2022-11-17T18:42:29.669Z,3.60
2022-11-17T18:45:00.949Z,1.90
2022-11-17T18:47:32.478Z,3.08
2022-11-17T18:50:03.917Z,2.08
2022-11-17T18:52:35.199Z,2.62
2022-11-17T18:55:08.398Z,4.47
2022-11-17T18:57:44.733Z,4.30
2022-11-17T19:00:17.298Z,2.77
2022-11-17T19:02:49.110Z,2.40
2022-11-17T19:05:20.801Z,3.70
2022-11-17T19:07:53.884Z,2.52
2022-11-17T19:10:25.275Z,1.92
2022-11-17T19:12:56.884Z,3.33
2022-11-17T19:15:28.621Z,1.82
2022-11-17T19:17:59.972Z,2.17
2022-11-17T19:20:31.836Z,2.17
2022-11-17T19:23:03.221Z,1.52
2022-11-17T19:25:37.794Z,1.90
2022-11-17T19:28:12.570Z,1.50
2022-11-17T19:30:44.286Z,1.40
2022-11-17T19:33:15.819Z,1.32
2022-11-17T19:35:47.444Z,1.30
2022-11-17T19:38:19.114Z,1.40
2022-11-17T19:40:50.382Z,1.20
2022-11-17T19:43:21.667Z,1.67
2022-11-17T19:45:53.054Z,1.30
2022-11-17T19:48:24.358Z,1.50
2022-11-17T19:50:56.289Z,1.90
2022-11-17T19:53:28.567Z,0.80
2022-11-17T19:56:01.397Z,1.30
2022-11-17T19:58:32.721Z,1.32
2022-11-17T20:01:11.477Z,1.22
2022-11-17T20:04:01.448Z,0.93
2022-11-17T20:06:37.224Z,0.90
2022-11-17T20:09:10.795Z,1.12
2022-11-17T20:11:42.708Z,1.85
2022-11-17T20:14:15.003Z,1.15
2022-11-17T20:16:46.300Z,1.12
2022-11-17T20:19:17.862Z,1.62
2022-11-17T20:21:49.391Z,1.67
2022-11-17T20:24:20.697Z,1.72
2022-11-17T20:26:51.968Z,1.67
2022-11-17T20:29:23.267Z,1.57
2022-11-17T20:31:54.412Z,1.87
2022-11-17T20:34:26.383Z,1.67
2022-11-17T20:37:00.706Z,2.37
2022-11-17T20:39:32.171Z,2.10
2022-11-17T20:42:03.516Z,1.47
2022-11-17T20:44:34.726Z,2.00
2022-11-17T20:47:06.375Z,1.70
2022-11-17T20:49:37.694Z,3.10
2022-11-17T20:52:13.195Z,1.00
2022-11-17T20:54:41.932Z,1.90
2022-11-17T20:57:13.397Z,5.83
2022-11-17T20:59:45.566Z,2.95
2022-11-17T21:02:16.985Z,2.22
2022-11-17T21:04:48.249Z,2.17
2022-11-17T21:07:19.695Z,1.72
2022-11-17T21:09:50.995Z,1.70
2022-11-17T21:12:22.231Z,2.10
2022-11-17T21:14:53.605Z,25.30
2022-11-17T21:17:42.968Z,3.45
2022-11-17T21:20:14.578Z,3.47
2022-11-17T21:22:45.941Z,2.75
2022-11-17T21:25:17.511Z,7.05
2022-11-17T21:27:49.072Z,3.83
2022-11-17T21:30:20.858Z,3.17
2022-11-17T21:32:51.724Z,5.45
2022-11-17T21:35:23.095Z,4.30
2022-11-17T21:37:55.658Z,3.35
2022-11-17T21:40:26.997Z,3.02
2022-11-17T21:42:59.422Z,3.30
2022-11-17T21:45:30.798Z,3.00
2022-11-17T21:48:02.010Z,3.58
2022-11-17T21:50:33.326Z,3.80
2022-11-17T21:53:04.531Z,4.45
2022-11-17T21:55:35.851Z,3.90
2022-11-17T21:58:06.913Z,5.67
2022-11-17T22:03:08.099Z,5.90
2022-11-17T22:05:39.259Z,5.37
2022-11-17T22:08:11.276Z,6.40
2022-11-17T22:10:42.640Z,5.42
2022-11-17T22:13:13.891Z,5.62
2022-11-17T22:15:45.843Z,6.80
2022-11-17T22:18:17.126Z,6.65
2022-11-17T22:20:52.926Z,6.62
2022-11-17T22:23:24.400Z,7.33
2022-11-17T22:25:57.105Z,8.28
2022-11-17T22:28:33.392Z,7.87
2022-11-17T22:31:08.031Z,6.85
2022-11-17T22:33:39.941Z,6.92
2022-11-17T22:36:12.348Z,8.43
2022-11-17T22:38:43.891Z,7.03
2022-11-17T22:41:15.178Z,7.20
2022-11-17T22:43:50.483Z,7.28
2022-11-17T22:46:22.708Z,7.58
2022-11-17T22:48:54.462Z,8.13
2022-11-17T22:51:43.775Z,9.60
2022-11-17T22:54:15.107Z,7.83
2022-11-17T22:56:46.551Z,7.47
2022-11-17T22:59:18.035Z,7.58
2022-11-17T23:01:49.530Z,7.25
2022-11-17T23:04:22.875Z,7.25
2022-11-17T23:06:54.258Z,8.60
2022-11-17T23:09:25.469Z,7.58
2022-11-17T23:11:56.680Z,7.47
2022-11-17T23:14:28.098Z,8.35
2022-11-17T23:16:59.473Z,9.68
2022-11-17T23:19:30.682Z,8.65
2022-11-17T23:22:02.131Z,9.48
2022-11-17T23:24:33.266Z,9.75
2022-11-17T23:27:04.636Z,9.20
2022-11-17T23:29:35.872Z,8.43
2022-11-17T23:32:08.493Z,9.28
2022-11-17T23:34:39.730Z,8.60
2022-11-17T23:37:11.376Z,10.38
2022-11-17T23:39:42.871Z,8.73
2022-11-17T23:42:13.997Z,8.98
2022-11-17T23:44:45.243Z,7.90
2022-11-17T23:47:16.674Z,7.00
2022-11-17T23:49:47.867Z,6.37
2022-11-17T23:52:19.348Z,6.05
2022-11-17T23:54:50.601Z,4.45
2022-11-17T23:57:21.926Z,6.47
2022-11-17T23:59:53.169Z,5.03
